createdAt,value
2022-09-04T00:00:13.807Z,17.38
2022-09-04T00:01:13.805Z,17.29
2022-09-04T00:02:13.807Z,17.26
2022-09-04T00:03:13.808Z,17.23
2022-09-04T00:04:13.957Z,17.14
2022-09-04T00:05:13.913Z,17.08
2022-09-04T00:06:13.815Z,17.01
2022-09-04T00:07:13.812Z,17.08
2022-09-04T00:08:13.813Z,17.01
2022-09-04T00:09:13.813Z,17.04
2022-09-04T00:10:13.816Z,17.09
2022-09-04T00:11:13.815Z,17.15
2022-09-04T00:12:13.817Z,17.09
2022-09-04T00:13:13.820Z,17.06
2022-09-04T00:14:13.818Z,17.15
2022-09-04T00:15:13.824Z,17.02
2022-09-04T00:16:13.865Z,17.09
2022-09-04T00:17:13.822Z,17.06
2022-09-04T00:18:13.822Z,17.08
2022-09-04T00:19:13.826Z,16.97
2022-09-04T00:20:13.823Z,17.04
2022-09-04T00:21:13.824Z,16.93
2022-09-04T00:22:13.825Z,16.91
2022-09-04T00:23:13.826Z,16.94
2022-09-04T00:24:13.828Z,17.02
2022-09-04T00:25:13.830Z,16.97
2022-09-04T00:26:13.829Z,16.94
2022-09-04T00:27:13.835Z,16.86
2022-09-04T00:28:13.839Z,16.94
2022-09-04T00:29:13.833Z,16.86
2022-09-04T00:30:13.834Z,16.84
2022-09-04T00:31:13.848Z,16.72
2022-09-04T00:32:13.839Z,16.74
2022-09-04T00:33:15.872Z,16.53
2022-09-04T00:34:13.844Z,16.53
2022-09-04T00:35:13.842Z,16.43
2022-09-04T00:36:13.839Z,16.39
2022-09-04T00:37:13.844Z,16.33
2022-09-04T00:38:13.845Z,16.39
2022-09-04T00:39:14.104Z,16.28
2022-09-04T00:40:13.845Z,16.26
2022-09-04T00:41:13.846Z,16.35
2022-09-04T00:42:13.849Z,16.29
2022-09-04T00:43:13.851Z,16.36
2022-09-04T00:44:13.853Z,16.42
2022-09-04T00:45:16.696Z,16.43
2022-09-04T00:46:13.939Z,16.42
2022-09-04T00:47:13.853Z,16.46
2022-09-04T00:48:13.850Z,16.38
2022-09-04T00:49:13.852Z,16.28
2022-09-04T00:50:13.852Z,16.33
2022-09-04T00:51:13.859Z,16.36
2022-09-04T00:52:13.855Z,16.28
2022-09-04T00:53:13.855Z,16.31
2022-09-04T00:54:13.856Z,16.20
2022-09-04T00:55:13.856Z,16.23
2022-09-04T00:56:13.863Z,16.05
2022-09-04T00:57:13.867Z,15.98
2022-09-04T00:58:13.859Z,16.01
2022-09-04T00:59:13.860Z,15.97
2022-09-04T01:00:13.860Z,15.95
2022-09-04T01:01:13.946Z,15.94
2022-09-04T01:02:14.041Z,16.04
2022-09-04T01:03:13.863Z,16.08
2022-09-04T01:04:13.866Z,16.31
2022-09-04T01:05:19.555Z,16.20
2022-09-04T01:06:13.861Z,16.21
2022-09-04T01:07:13.867Z,16.21
2022-09-04T01:08:16.571Z,16.23
2022-09-04T01:09:13.866Z,16.20
2022-09-04T01:10:13.868Z,16.15
2022-09-04T01:11:13.868Z,16.16
2022-09-04T01:12:13.869Z,15.98
2022-09-04T01:13:13.872Z,15.95
2022-09-04T01:14:13.871Z,15.95
2022-09-04T01:15:13.869Z,15.90
2022-09-04T01:16:13.909Z,15.88
2022-09-04T01:17:13.870Z,15.88
2022-09-04T01:18:13.871Z,15.88
2022-09-04T01:19:13.871Z,15.86
2022-09-04T01:20:13.876Z,15.84
2022-09-04T01:21:13.872Z,15.86
2022-09-04T01:22:13.878Z,15.73
2022-09-04T01:23:13.879Z,15.73
2022-09-04T01:24:13.875Z,15.79
2022-09-04T01:25:13.877Z,15.75
2022-09-04T01:26:13.879Z,15.73
2022-09-04T01:27:13.878Z,15.72
2022-09-04T01:28:13.880Z,15.70
2022-09-04T01:29:13.878Z,15.70
2022-09-04T01:30:13.881Z,15.73
2022-09-04T01:31:13.937Z,15.75
2022-09-04T01:32:13.884Z,15.64
2022-09-04T01:33:13.883Z,15.65
2022-09-04T01:34:13.885Z,15.68
2022-09-04T01:35:13.884Z,15.64
2022-09-04T01:36:13.885Z,15.62
2022-09-04T01:37:13.887Z,15.54
2022-09-04T01:38:13.883Z,15.51
2022-09-04T01:39:13.885Z,15.52
2022-09-04T01:40:13.887Z,15.44
2022-09-04T01:41:13.887Z,15.43
2022-09-04T01:42:13.889Z,15.47
2022-09-04T01:43:13.886Z,15.46
2022-09-04T01:44:13.914Z,15.44
2022-09-04T01:45:13.887Z,15.36
2022-09-04T01:46:13.889Z,15.42
2022-09-04T01:47:13.889Z,15.42
2022-09-04T01:48:13.891Z,15.33
2022-09-04T01:49:13.887Z,15.36
2022-09-04T01:50:14.090Z,15.28
2022-09-04T01:51:13.890Z,15.37
2022-09-04T01:52:13.894Z,15.31
2022-09-04T01:53:13.890Z,15.28
2022-09-04T01:54:13.894Z,15.31
2022-09-04T01:55:13.896Z,15.36
2022-09-04T01:56:13.894Z,15.33
2022-09-04T01:57:13.891Z,15.29
2022-09-04T01:58:13.896Z,15.37
2022-09-04T01:59:13.896Z,15.35
2022-09-04T02:00:13.896Z,15.37
2022-09-04T02:01:13.944Z,15.39
2022-09-04T02:02:13.950Z,15.36
2022-09-04T02:03:13.900Z,15.36
2022-09-04T02:04:13.898Z,15.31
2022-09-04T02:05:13.902Z,15.37
2022-09-04T02:06:13.903Z,15.40
2022-09-04T02:07:13.896Z,15.37
2022-09-04T02:08:13.899Z,15.37
2022-09-04T02:09:13.896Z,15.44
2022-09-04T02:10:13.897Z,15.37
2022-09-04T02:11:13.899Z,15.28
2022-09-04T02:12:13.903Z,15.40
2022-09-04T02:13:13.898Z,15.27
2022-09-04T02:14:13.902Z,15.27
2022-09-04T02:15:13.899Z,15.27
2022-09-04T02:16:13.953Z,15.28
2022-09-04T02:17:13.899Z,15.31
2022-09-04T02:18:13.905Z,15.27
2022-09-04T02:19:13.899Z,15.22
2022-09-04T02:20:13.905Z,15.21
2022-09-04T02:21:13.900Z,15.25
2022-09-04T02:22:13.907Z,15.25
2022-09-04T02:23:13.905Z,15.24
2022-09-04T02:24:13.904Z,15.24
2022-09-04T02:25:13.908Z,15.11
2022-09-04T02:26:13.907Z,15.24
2022-09-04T02:27:13.908Z,15.17
2022-09-04T02:28:13.906Z,15.15
2022-09-04T02:29:13.905Z,15.15
2022-09-04T02:30:13.910Z,15.07
2022-09-04T02:31:13.985Z,15.06
2022-09-04T02:32:13.906Z,15.02
2022-09-04T02:33:13.906Z,14.99
2022-09-04T02:34:13.910Z,14.97
2022-09-04T02:35:13.906Z,14.94
2022-09-04T02:36:13.907Z,14.89
2022-09-04T02:37:13.906Z,14.89
2022-09-04T02:38:13.913Z,14.94
2022-09-04T02:39:13.907Z,14.86
2022-09-04T02:40:13.909Z,14.85
2022-09-04T02:41:13.908Z,14.91
2022-09-04T02:42:13.911Z,14.85
2022-09-04T02:43:13.911Z,14.88
2022-09-04T02:44:13.914Z,14.88
2022-09-04T02:45:13.912Z,14.85
2022-09-04T02:46:13.998Z,14.89
2022-09-04T02:47:14.022Z,14.89
2022-09-04T02:48:13.915Z,14.82
2022-09-04T02:49:13.912Z,14.70
2022-09-04T02:50:14.110Z,14.77
2022-09-04T02:51:14.031Z,14.66
2022-09-04T02:52:13.912Z,14.79
2022-09-04T02:53:16.727Z,14.77
2022-09-04T02:54:13.914Z,14.73
2022-09-04T02:55:13.917Z,14.88
2022-09-04T02:56:13.916Z,14.94
2022-09-04T02:57:13.910Z,14.99
2022-09-04T02:58:13.913Z,14.97
2022-09-04T02:59:13.911Z,15.06
2022-09-04T03:00:13.934Z,15.09
2022-09-04T03:01:13.997Z,15.03
2022-09-04T03:02:13.989Z,15.11
2022-09-04T03:03:13.911Z,15.17
2022-09-04T03:04:13.915Z,15.17
2022-09-04T03:05:13.916Z,15.11
2022-09-04T03:06:13.912Z,15.25
2022-09-04T03:07:13.914Z,15.24
2022-09-04T03:08:13.917Z,15.31
2022-09-04T03:09:13.912Z,15.21
2022-09-04T03:10:13.914Z,15.37
2022-09-04T03:11:13.912Z,15.24
2022-09-04T03:12:13.913Z,15.22
2022-09-04T03:13:13.912Z,15.24
2022-09-04T03:14:13.914Z,15.19
2022-09-04T03:15:13.914Z,15.10
2022-09-04T03:16:13.967Z,14.94
2022-09-04T03:17:13.912Z,14.97
2022-09-04T03:18:16.973Z,14.91
2022-09-04T03:19:16.610Z,14.94
2022-09-04T03:20:13.917Z,14.89
2022-09-04T03:21:13.916Z,14.86
2022-09-04T03:22:13.915Z,14.84
2022-09-04T03:23:13.918Z,14.86
2022-09-04T03:24:13.916Z,14.73
2022-09-04T03:25:13.914Z,14.84
2022-09-04T03:26:13.918Z,14.85
2022-09-04T03:27:13.918Z,14.85
2022-09-04T03:28:13.918Z,14.81
2022-09-04T03:29:13.918Z,14.84
2022-09-04T03:30:13.916Z,14.84
2022-09-04T03:31:13.975Z,14.85
2022-09-04T03:32:16.845Z,14.85
2022-09-04T03:33:13.915Z,14.77
2022-09-04T03:34:13.920Z,14.70
2022-09-04T03:35:13.926Z,14.69
2022-09-04T03:36:13.925Z,14.73
2022-09-04T03:37:13.923Z,14.72
2022-09-04T03:38:13.918Z,14.72
2022-09-04T03:39:13.915Z,14.77
2022-09-04T03:40:13.918Z,14.72
2022-09-04T03:41:13.915Z,14.78
2022-09-04T03:42:13.915Z,14.91
2022-09-04T03:43:13.915Z,14.82
2022-09-04T03:44:13.926Z,14.91
2022-09-04T03:45:13.919Z,14.89
2022-09-04T03:46:13.983Z,14.85
2022-09-04T03:47:13.917Z,14.70
2022-09-04T03:48:25.059Z,14.69
2022-09-04T03:49:13.919Z,14.70
2022-09-04T03:50:14.125Z,14.78
2022-09-04T03:51:13.920Z,14.70
2022-09-04T03:52:13.921Z,14.72
2022-09-04T03:53:13.915Z,14.73
2022-09-04T03:54:13.917Z,14.70
2022-09-04T03:55:13.918Z,14.63
2022-09-04T03:56:13.922Z,14.55
2022-09-04T03:57:13.916Z,14.59
2022-09-04T03:58:13.919Z,14.63
2022-09-04T03:59:13.918Z,14.51
2022-09-04T04:00:13.920Z,14.59
2022-09-04T04:01:14.051Z,14.60
2022-09-04T04:02:13.918Z,14.62
2022-09-04T04:03:13.978Z,14.68
2022-09-04T04:04:13.923Z,14.69
2022-09-04T04:05:13.914Z,14.58
2022-09-04T04:06:13.915Z,14.54
2022-09-04T04:07:13.915Z,14.54
2022-09-04T04:08:13.916Z,14.37
2022-09-04T04:09:13.914Z,14.41
2022-09-04T04:10:13.917Z,14.36
2022-09-04T04:11:13.916Z,14.40
2022-09-04T04:12:13.929Z,14.43
2022-09-04T04:13:13.915Z,14.41
2022-09-04T04:14:13.916Z,14.55
2022-09-04T04:15:13.915Z,14.51
2022-09-04T04:16:14.019Z,14.54
2022-09-04T04:17:17.576Z,14.55
2022-09-04T04:18:13.914Z,14.54
2022-09-04T04:19:13.913Z,14.55
2022-09-04T04:20:13.942Z,14.53
2022-09-04T04:21:13.914Z,14.55
2022-09-04T04:22:13.931Z,14.51
2022-09-04T04:23:13.914Z,14.55
2022-09-04T04:24:13.915Z,14.40
2022-09-04T04:25:13.913Z,14.53
2022-09-04T04:26:13.914Z,14.53
2022-09-04T04:27:13.921Z,14.54
2022-09-04T04:28:13.914Z,14.55
2022-09-04T04:29:13.924Z,14.47
2022-09-04T04:30:13.921Z,14.54
2022-09-04T04:31:13.979Z,14.53
2022-09-04T04:32:13.916Z,14.55
2022-09-04T04:33:13.917Z,14.53
2022-09-04T04:34:13.917Z,14.54
2022-09-04T04:35:13.914Z,14.54
2022-09-04T04:36:13.916Z,14.55
2022-09-04T04:37:13.912Z,14.50
2022-09-04T04:38:13.924Z,14.62
2022-09-04T04:39:13.920Z,14.62
2022-09-04T04:40:13.957Z,14.77
2022-09-04T04:41:13.911Z,14.69
2022-09-04T04:42:13.913Z,14.69
2022-09-04T04:43:13.914Z,14.81
2022-09-04T04:44:13.917Z,14.77
2022-09-04T04:45:13.913Z,14.79
2022-09-04T04:46:14.130Z,14.73
2022-09-04T04:47:13.911Z,14.78
2022-09-04T04:48:13.914Z,14.68
2022-09-04T04:49:13.910Z,14.59
2022-09-04T04:50:13.911Z,14.60
2022-09-04T04:51:13.911Z,14.63
2022-09-04T04:52:13.911Z,14.48
2022-09-04T04:53:13.911Z,14.58
2022-09-04T04:54:13.914Z,14.50
2022-09-04T04:55:13.919Z,14.63
2022-09-04T04:56:13.913Z,14.66
2022-09-04T04:57:13.914Z,14.55
2022-09-04T04:58:13.912Z,14.60
2022-09-04T04:59:13.910Z,14.59
2022-09-04T05:00:13.912Z,14.58
2022-09-04T05:01:13.909Z,14.66
2022-09-04T05:02:14.020Z,14.66
2022-09-04T05:03:13.909Z,14.55
2022-09-04T05:04:13.911Z,14.62
2022-09-04T05:05:13.925Z,14.62
2022-09-04T05:06:13.917Z,14.55
2022-09-04T05:07:13.908Z,14.60
2022-09-04T05:08:13.911Z,14.62
2022-09-04T05:09:13.907Z,14.59
2022-09-04T05:10:13.910Z,14.69
2022-09-04T05:11:13.907Z,14.59
2022-09-04T05:12:13.910Z,14.55
2022-09-04T05:13:13.942Z,14.58
2022-09-04T05:14:13.910Z,14.63
2022-09-04T05:15:13.908Z,14.73
2022-09-04T05:16:16.575Z,14.70
2022-09-04T05:17:13.978Z,14.73
2022-09-04T05:18:13.912Z,14.70
2022-09-04T05:19:13.907Z,14.73
2022-09-04T05:20:13.910Z,14.72
2022-09-04T05:21:13.906Z,14.77
2022-09-04T05:22:13.914Z,14.88
2022-09-04T05:23:13.919Z,14.85
2022-09-04T05:24:13.915Z,14.88
2022-09-04T05:25:13.914Z,14.88
2022-09-04T05:26:13.909Z,14.97
2022-09-04T05:27:13.909Z,14.91
2022-09-04T05:28:13.905Z,15.04
2022-09-04T05:29:13.903Z,14.96
2022-09-04T05:30:13.905Z,14.96
2022-09-04T05:31:13.998Z,15.00
2022-09-04T05:32:13.910Z,15.10
2022-09-04T05:33:13.923Z,15.09
2022-09-04T05:34:13.903Z,15.14
2022-09-04T05:35:13.928Z,15.17
2022-09-04T05:36:13.909Z,15.21
2022-09-04T05:37:13.917Z,15.24
2022-09-04T05:38:13.940Z,15.29
2022-09-04T05:39:13.946Z,15.33
2022-09-04T05:40:13.925Z,15.33
2022-09-04T05:41:13.918Z,15.39
2022-09-04T05:42:13.915Z,15.46
2022-09-04T05:43:13.932Z,15.47
2022-09-04T05:44:13.908Z,15.59
2022-09-04T05:45:13.924Z,15.68
2022-09-04T05:46:13.953Z,15.70
2022-09-04T05:47:13.912Z,15.72
2022-09-04T05:48:13.912Z,15.84
2022-09-04T05:49:13.951Z,15.90
2022-09-04T05:50:13.979Z,15.91
2022-09-04T05:51:13.924Z,15.90
2022-09-04T05:52:13.902Z,15.94
2022-09-04T05:53:13.946Z,15.91
2022-09-04T05:54:13.927Z,16.10
2022-09-04T05:55:13.911Z,16.13
2022-09-04T05:56:13.917Z,16.10
2022-09-04T05:57:13.911Z,16.17
2022-09-04T05:58:13.935Z,16.16
2022-09-04T05:59:13.918Z,16.15
2022-09-04T06:00:13.917Z,16.31
2022-09-04T06:01:13.915Z,16.31
2022-09-04T06:02:13.981Z,16.35
2022-09-04T06:03:13.972Z,16.33
2022-09-04T06:04:13.945Z,16.38
2022-09-04T06:05:13.923Z,16.29
2022-09-04T06:06:13.911Z,16.32
2022-09-04T06:07:13.901Z,16.29
2022-09-04T06:08:13.923Z,16.42
2022-09-04T06:09:13.968Z,16.42
2022-09-04T06:10:13.902Z,16.47
2022-09-04T06:11:13.909Z,16.42
2022-09-04T06:12:18.740Z,16.53
2022-09-04T06:13:13.907Z,16.53
2022-09-04T06:14:13.903Z,16.57
2022-09-04T06:15:13.906Z,16.57
2022-09-04T06:16:13.999Z,16.56
2022-09-04T06:17:13.907Z,16.61
2022-09-04T06:18:13.904Z,16.68
2022-09-04T06:19:13.913Z,16.66
2022-09-04T06:20:13.903Z,16.66
2022-09-04T06:21:13.902Z,16.75
2022-09-04T06:22:13.905Z,16.81
2022-09-04T06:23:13.906Z,16.81
2022-09-04T06:24:13.905Z,16.79
2022-09-04T06:25:13.908Z,16.84
2022-09-04T06:26:13.914Z,16.90
2022-09-04T06:27:13.915Z,16.93
2022-09-04T06:28:13.904Z,16.94
2022-09-04T06:29:13.908Z,17.02
2022-09-04T06:30:13.907Z,16.99
2022-09-04T06:31:13.946Z,16.96
2022-09-04T06:32:13.906Z,16.97
2022-09-04T06:33:13.910Z,16.94
2022-09-04T06:34:13.905Z,16.99
2022-09-04T06:35:14.264Z,17.06
2022-09-04T06:36:13.907Z,17.12
2022-09-04T06:37:13.910Z,17.05
2022-09-04T06:38:13.909Z,17.08
2022-09-04T06:39:13.909Z,17.12
2022-09-04T06:40:13.912Z,17.14
2022-09-04T06:41:13.907Z,17.15
2022-09-04T06:42:13.908Z,17.14
2022-09-04T06:43:13.917Z,17.22
2022-09-04T06:44:13.912Z,17.23
2022-09-04T06:45:13.913Z,17.27
2022-09-04T06:46:13.966Z,17.23
2022-09-04T06:47:13.911Z,17.24
2022-09-04T06:48:13.912Z,17.26
2022-09-04T06:49:13.920Z,17.34
2022-09-04T06:50:13.929Z,17.39
2022-09-04T06:51:13.914Z,17.36
2022-09-04T06:52:13.912Z,17.39
2022-09-04T06:53:13.916Z,17.46
2022-09-04T06:54:13.914Z,17.45
2022-09-04T06:55:13.917Z,17.36
2022-09-04T06:56:13.915Z,17.45
2022-09-04T06:57:13.917Z,17.49
2022-09-04T06:58:13.916Z,17.59
2022-09-04T06:59:13.919Z,17.49
2022-09-04T07:00:13.917Z,17.57
2022-09-04T07:01:14.050Z,17.52
2022-09-04T07:02:14.059Z,17.51
2022-09-04T07:03:13.922Z,17.59
2022-09-04T07:04:13.922Z,17.64
2022-09-04T07:05:13.927Z,17.68
2022-09-04T07:06:13.922Z,17.68
2022-09-04T07:07:13.936Z,17.74
2022-09-04T07:08:13.923Z,17.71
2022-09-04T07:09:13.921Z,17.76
2022-09-04T07:10:13.923Z,17.86
2022-09-04T07:11:13.928Z,17.85
2022-09-04T07:12:13.927Z,17.89
2022-09-04T07:13:13.930Z,17.89
2022-09-04T07:14:13.927Z,17.95
2022-09-04T07:15:13.927Z,18.00
2022-09-04T07:16:14.035Z,17.95
2022-09-04T07:17:13.931Z,17.94
2022-09-04T07:18:13.933Z,18.03
2022-09-04T07:19:13.940Z,18.04
2022-09-04T07:20:14.649Z,18.03
2022-09-04T07:21:13.932Z,18.18
2022-09-04T07:22:13.930Z,18.23
2022-09-04T07:23:13.931Z,18.19
2022-09-04T07:24:13.931Z,18.20
2022-09-04T07:25:13.935Z,18.33
2022-09-04T07:26:13.933Z,18.25
2022-09-04T07:27:13.935Z,18.31
2022-09-04T07:28:13.936Z,18.28
2022-09-04T07:29:13.940Z,18.40
2022-09-04T07:30:13.935Z,18.41
2022-09-04T07:31:13.982Z,18.47
2022-09-04T07:32:13.938Z,18.49
2022-09-04T07:33:13.940Z,18.47
2022-09-04T07:34:13.941Z,18.55
2022-09-04T07:35:13.941Z,18.52
2022-09-04T07:36:13.940Z,18.55
2022-09-04T07:37:13.945Z,18.52
2022-09-04T07:38:13.951Z,18.53
2022-09-04T07:39:13.948Z,18.59
2022-09-04T07:40:14.147Z,18.59
2022-09-04T07:41:14.925Z,18.62
2022-09-04T07:42:13.953Z,18.68
2022-09-04T07:43:13.948Z,18.70
2022-09-04T07:44:13.953Z,18.81
2022-09-04T07:45:13.950Z,18.83
2022-09-04T07:46:14.037Z,18.84
2022-09-04T07:47:13.957Z,18.92
2022-09-04T07:48:13.954Z,18.98
2022-09-04T07:49:13.956Z,19.04
2022-09-04T07:50:13.960Z,19.07
2022-09-04T07:51:13.962Z,19.09
2022-09-04T07:52:13.960Z,19.15
2022-09-04T07:53:13.969Z,19.15
2022-09-04T07:54:22.749Z,19.21
2022-09-04T07:55:13.964Z,19.36
2022-09-04T07:56:13.965Z,19.36
2022-09-04T07:57:13.969Z,19.36
2022-09-04T07:58:13.966Z,19.44
2022-09-04T07:59:13.969Z,19.41
2022-09-04T08:00:13.982Z,19.41
2022-09-04T08:01:14.056Z,19.49
2022-09-04T08:02:13.974Z,19.52
2022-09-04T08:03:13.978Z,19.59
2022-09-04T08:04:13.980Z,19.55
2022-09-04T08:05:14.000Z,19.74
2022-09-04T08:06:13.979Z,19.81
2022-09-04T08:07:13.986Z,19.74
2022-09-04T08:08:13.984Z,19.84
2022-09-04T08:09:13.986Z,19.89
2022-09-04T08:10:13.985Z,19.88
2022-09-04T08:11:13.989Z,19.88
2022-09-04T08:12:13.989Z,19.84
2022-09-04T08:13:13.992Z,19.92
2022-09-04T08:14:13.995Z,19.95
2022-09-04T08:15:14.002Z,19.95
2022-09-04T08:16:14.059Z,20.02
2022-09-04T08:17:14.001Z,20.03
2022-09-04T08:18:14.000Z,20.03
2022-09-04T08:19:15.599Z,20.10
2022-09-04T08:20:14.006Z,20.13
2022-09-04T08:21:14.010Z,20.14
2022-09-04T08:22:14.021Z,20.10
2022-09-04T08:23:14.013Z,20.18
2022-09-04T08:24:14.014Z,20.18
2022-09-04T08:25:14.013Z,20.19
2022-09-04T08:26:14.018Z,20.21
2022-09-04T08:27:14.022Z,20.22
2022-09-04T08:28:14.022Z,20.21
2022-09-04T08:29:14.024Z,20.32
2022-09-04T08:30:14.025Z,20.25
2022-09-04T08:31:14.081Z,20.28
2022-09-04T08:32:14.029Z,20.28
2022-09-04T08:33:14.032Z,20.31
2022-09-04T08:34:14.032Z,20.47
2022-09-04T08:35:14.038Z,20.47
2022-09-04T08:36:14.037Z,20.47
2022-09-04T08:37:14.040Z,20.50
2022-09-04T08:38:14.044Z,20.56
2022-09-04T08:39:14.047Z,20.58
2022-09-04T08:40:14.047Z,20.58
2022-09-04T08:41:14.051Z,20.55
2022-09-04T08:42:14.051Z,20.62
2022-09-04T08:43:14.058Z,20.69
2022-09-04T08:44:14.065Z,20.72
2022-09-04T08:45:14.311Z,20.78
2022-09-04T08:46:14.120Z,20.75
2022-09-04T08:47:14.067Z,20.78
2022-09-04T08:48:14.798Z,20.78
2022-09-04T08:49:14.070Z,20.88
2022-09-04T08:50:14.072Z,20.80
2022-09-04T08:51:14.073Z,20.75
2022-09-04T08:52:14.077Z,20.88
2022-09-04T08:53:14.085Z,20.92
2022-09-04T08:54:14.086Z,20.77
2022-09-04T08:55:14.084Z,20.84
2022-09-04T08:56:14.087Z,20.80
2022-09-04T08:57:14.121Z,20.81
2022-09-04T08:58:14.102Z,20.80
2022-09-04T08:59:14.095Z,20.77
2022-09-04T09:00:14.172Z,20.81
2022-09-04T09:01:14.127Z,20.72
2022-09-04T09:02:14.164Z,20.75
2022-09-04T09:03:14.104Z,20.70
2022-09-04T09:04:14.104Z,20.66
2022-09-04T09:05:14.106Z,20.63
2022-09-04T09:06:14.108Z,20.66
2022-09-04T09:07:14.113Z,20.70
2022-09-04T09:08:14.113Z,20.69
2022-09-04T09:09:14.115Z,20.70
2022-09-04T09:10:14.116Z,20.78
2022-09-04T09:11:14.125Z,20.59
2022-09-04T09:12:14.122Z,20.66
2022-09-04T09:13:14.124Z,20.63
2022-09-04T09:14:14.125Z,20.62
2022-09-04T09:15:14.131Z,20.51
2022-09-04T09:16:14.181Z,20.58
2022-09-04T09:17:14.136Z,20.56
2022-09-04T09:18:14.134Z,20.50
2022-09-04T09:19:14.135Z,20.50
2022-09-04T09:20:19.344Z,20.56
2022-09-04T09:21:14.140Z,20.63
2022-09-04T09:22:14.143Z,20.60
2022-09-04T09:23:17.915Z,20.58
2022-09-04T09:24:14.151Z,20.62
2022-09-04T09:25:14.149Z,20.60
2022-09-04T09:26:14.150Z,20.58
2022-09-04T09:27:14.159Z,20.58
2022-09-04T09:28:14.156Z,20.65
2022-09-04T09:29:14.163Z,20.62
2022-09-04T09:30:14.158Z,20.67
2022-09-04T09:31:14.230Z,20.70
2022-09-04T09:32:14.166Z,20.60
2022-09-04T09:33:14.167Z,20.74
2022-09-04T09:34:14.167Z,20.70
2022-09-04T09:35:14.174Z,20.60
2022-09-04T09:36:14.170Z,20.77
2022-09-04T09:37:14.178Z,20.74
2022-09-04T09:38:14.179Z,20.74
2022-09-04T09:39:14.185Z,20.78
2022-09-04T09:40:14.178Z,20.80
2022-09-04T09:41:14.183Z,20.82
2022-09-04T09:42:14.187Z,20.77
2022-09-04T09:43:14.195Z,20.87
2022-09-04T09:44:14.187Z,20.82
2022-09-04T09:45:14.413Z,20.82
2022-09-04T09:46:14.215Z,20.80
2022-09-04T09:47:14.202Z,20.80
2022-09-04T09:48:14.203Z,20.93
2022-09-04T09:49:15.233Z,20.88
2022-09-04T09:50:14.204Z,20.93
2022-09-04T09:51:14.317Z,20.93
2022-09-04T09:52:14.211Z,20.96
2022-09-04T09:53:14.205Z,20.88
2022-09-04T09:54:14.209Z,20.96
2022-09-04T09:55:14.210Z,20.96
2022-09-04T09:56:14.217Z,20.97
2022-09-04T09:57:14.214Z,20.99
2022-09-04T09:58:14.219Z,20.95
2022-09-04T09:59:14.221Z,21.03
2022-09-04T10:00:14.223Z,21.05
2022-09-04T10:01:14.272Z,21.02
2022-09-04T10:02:14.259Z,21.00
2022-09-04T10:03:14.231Z,20.99
2022-09-04T10:04:14.231Z,21.03
2022-09-04T10:05:14.232Z,20.99
2022-09-04T10:06:14.235Z,21.03
2022-09-04T10:07:14.240Z,21.02
2022-09-04T10:08:14.239Z,21.09
2022-09-04T10:09:14.240Z,20.99
2022-09-04T10:10:14.242Z,21.03
2022-09-04T10:11:14.245Z,21.14
2022-09-04T10:12:14.247Z,21.00
2022-09-04T10:13:14.248Z,21.11
2022-09-04T10:14:14.253Z,21.15
2022-09-04T10:15:14.253Z,21.21
2022-09-04T10:16:14.272Z,21.22
2022-09-04T10:17:14.260Z,21.22
2022-09-04T10:18:14.261Z,21.25
2022-09-04T10:19:14.261Z,21.27
2022-09-04T10:20:14.269Z,21.29
2022-09-04T10:21:14.266Z,21.20
2022-09-04T10:22:14.275Z,21.18
2022-09-04T10:23:14.271Z,21.30
2022-09-04T10:24:14.275Z,21.24
2022-09-04T10:25:14.276Z,21.24
2022-09-04T10:26:14.283Z,21.27
2022-09-04T10:27:14.285Z,21.29
2022-09-04T10:28:14.284Z,21.27
2022-09-04T10:29:14.300Z,21.33
2022-09-04T10:30:14.351Z,21.24
2022-09-04T10:31:14.367Z,21.25
2022-09-04T10:32:14.296Z,21.32
2022-09-04T10:33:14.293Z,21.29
2022-09-04T10:34:14.306Z,21.33
2022-09-04T10:35:14.304Z,21.33
2022-09-04T10:36:14.304Z,21.33
2022-09-04T10:37:14.306Z,21.35
2022-09-04T10:38:14.308Z,21.43
2022-09-04T10:39:14.307Z,21.40
2022-09-04T10:40:14.397Z,21.36
2022-09-04T10:41:14.311Z,21.37
2022-09-04T10:42:14.316Z,21.48
2022-09-04T10:43:14.315Z,21.43
2022-09-04T10:44:14.319Z,21.43
2022-09-04T10:45:14.668Z,21.46
2022-09-04T10:46:23.160Z,21.50
2022-09-04T10:47:14.325Z,21.50
2022-09-04T10:48:14.330Z,21.51
2022-09-04T10:49:14.336Z,21.54
2022-09-04T10:50:14.332Z,21.55
2022-09-04T10:51:14.332Z,21.55
2022-09-04T10:52:14.780Z,21.60
2022-09-04T10:53:14.338Z,21.57
2022-09-04T10:54:14.339Z,21.64
2022-09-04T10:55:14.344Z,21.57
2022-09-04T10:56:14.450Z,21.58
2022-09-04T10:57:14.345Z,21.60
2022-09-04T10:58:14.351Z,21.75
2022-09-04T10:59:14.352Z,21.70
2022-09-04T11:00:14.371Z,21.70
2022-09-04T11:01:14.413Z,21.73
2022-09-04T11:02:14.369Z,21.66
2022-09-04T11:03:14.361Z,21.73
2022-09-04T11:04:14.363Z,21.79
2022-09-04T11:05:14.364Z,21.82
2022-09-04T11:06:15.834Z,21.92
2022-09-04T11:07:14.371Z,21.95
2022-09-04T11:08:14.373Z,21.95
2022-09-04T11:09:14.374Z,21.99
2022-09-04T11:10:14.379Z,21.93
2022-09-04T11:11:14.377Z,21.99
2022-09-04T11:12:14.383Z,22.06
2022-09-04T11:13:14.383Z,22.04
2022-09-04T11:14:14.387Z,22.04
2022-09-04T11:15:14.387Z,22.00
2022-09-04T11:16:14.409Z,22.00
2022-09-04T11:17:14.394Z,21.93
2022-09-04T11:18:14.397Z,21.89
2022-09-04T11:19:14.398Z,21.88
2022-09-04T11:20:18.242Z,21.83
2022-09-04T11:21:14.402Z,21.83
2022-09-04T11:22:14.409Z,21.82
2022-09-04T11:23:14.415Z,21.83
2022-09-04T11:24:14.414Z,21.83
2022-09-04T11:25:14.411Z,21.88
2022-09-04T11:26:14.417Z,21.93
2022-09-04T11:27:14.420Z,22.04
2022-09-04T11:28:15.846Z,22.10
2022-09-04T11:29:14.422Z,22.28
2022-09-04T11:30:14.427Z,22.23
2022-09-04T11:31:14.449Z,22.22
2022-09-04T11:32:14.432Z,22.29
2022-09-04T11:33:14.432Z,22.35
2022-09-04T11:34:14.437Z,22.39
2022-09-04T11:35:14.437Z,22.44
2022-09-04T11:36:14.442Z,22.47
2022-09-04T11:37:14.441Z,22.35
2022-09-04T11:38:14.446Z,22.41
2022-09-04T11:39:14.447Z,22.35
2022-09-04T11:40:14.452Z,22.45
2022-09-04T11:41:14.452Z,22.43
2022-09-04T11:42:14.454Z,22.36
2022-09-04T11:43:14.461Z,22.45
2022-09-04T11:44:14.461Z,22.38
2022-09-04T11:45:14.720Z,22.38
2022-09-04T11:46:14.539Z,22.55
2022-09-04T11:47:14.471Z,22.63
2022-09-04T11:48:14.475Z,22.72
2022-09-04T11:49:14.473Z,22.69
2022-09-04T11:50:14.481Z,22.85
2022-09-04T11:51:14.477Z,22.91
2022-09-04T11:52:14.482Z,23.02
2022-09-04T11:53:14.482Z,22.88
2022-09-04T11:54:14.483Z,22.93
2022-09-04T11:55:14.486Z,22.88
2022-09-04T11:56:14.506Z,22.88
2022-09-04T11:57:14.493Z,22.68
2022-09-04T11:58:14.497Z,22.73
2022-09-04T11:59:14.498Z,22.73
2022-09-04T12:00:14.502Z,22.62
2022-09-04T12:01:14.504Z,22.59
2022-09-04T12:02:14.574Z,22.57
2022-09-04T12:03:14.510Z,22.41
2022-09-04T12:04:14.559Z,22.45
2022-09-04T12:05:14.516Z,22.39
2022-09-04T12:06:14.520Z,22.32
2022-09-04T12:07:14.519Z,22.25
2022-09-04T12:08:14.524Z,22.25
2022-09-04T12:09:14.528Z,22.23
2022-09-04T12:10:14.529Z,22.18
2022-09-04T12:11:14.535Z,22.18
2022-09-04T12:12:14.536Z,22.25
2022-09-04T12:13:15.457Z,22.20
2022-09-04T12:14:14.538Z,22.23
2022-09-04T12:15:14.541Z,22.14
2022-09-04T12:16:14.654Z,22.14
2022-09-04T12:17:14.544Z,22.22
2022-09-04T12:18:14.549Z,22.20
2022-09-04T12:19:14.549Z,22.15
2022-09-04T12:20:14.552Z,22.18
2022-09-04T12:21:14.555Z,22.25
2022-09-04T12:22:14.559Z,22.28
2022-09-04T12:23:14.561Z,22.26
2022-09-04T12:24:14.567Z,22.28
2022-09-04T12:25:14.570Z,22.29
2022-09-04T12:26:14.573Z,22.30
2022-09-04T12:27:14.580Z,22.30
2022-09-04T12:28:14.577Z,22.35
2022-09-04T12:29:14.583Z,22.35
2022-09-04T12:30:14.588Z,22.39
2022-09-04T12:31:14.647Z,22.47
2022-09-04T12:32:14.591Z,22.54
2022-09-04T12:33:14.589Z,22.66
2022-09-04T12:34:14.593Z,22.68
2022-09-04T12:35:14.608Z,22.75
2022-09-04T12:36:14.613Z,22.70
2022-09-04T12:37:14.600Z,22.73
2022-09-04T12:38:14.602Z,22.72
2022-09-04T12:39:14.604Z,22.68
2022-09-04T12:40:14.613Z,22.70
2022-09-04T12:41:14.610Z,22.72
2022-09-04T12:42:14.621Z,22.75
2022-09-04T12:43:14.615Z,22.75
2022-09-04T12:44:14.627Z,22.70
2022-09-04T12:45:15.073Z,22.70
2022-09-04T12:46:14.724Z,22.78
2022-09-04T12:47:14.626Z,22.80
2022-09-04T12:48:14.631Z,22.96
2022-09-04T12:49:14.633Z,22.98
2022-09-04T12:50:14.637Z,23.17
2022-09-04T12:51:14.640Z,23.23
2022-09-04T12:52:14.672Z,23.40